aviador You're here:

MMSL Decoded Metar

in
Report Time2017-04-27 15:43:00
UTC Time2017-04-27 16:59:59
Flight Rules Old
Wind230° at 08 kt
W.Decomp.*RWY 29: 4.0 kt HW 6.9 kt LCW
W.Rank230° ranks 16
Current wind is below 230° avg. (9.3)
Visibility9999 m
Phenomena:N/A
Clouds:Few 025 Hf
Expected CloudBase > 2,400 ft AGL from Temp-Dew spread
CeilingNone
Temp20°C
Dew Point14°C (69% RH)
AAT18.4°C
QNH1013 hPa
Raw Report
METAR MMSL 271543Z 23008KT 8SM FEW025 20/14 A2990 RMK 8/500 ISOL CI=

Extra information for MMSL:More info

Social comments